createdAt,value
2022-08-26T00:01:52.909Z,71.60
2022-08-26T00:04:21.458Z,71.50
2022-08-26T00:06:48.452Z,71.60
2022-08-26T00:09:15.335Z,71.90
2022-08-26T00:11:44.360Z,71.70
2022-08-26T00:14:11.876Z,71.50
2022-08-26T00:16:41.039Z,71.60
2022-08-26T00:19:14.613Z,71.70
2022-08-26T00:21:41.668Z,71.90
2022-08-26T00:24:09.092Z,72.00
2022-08-26T00:26:36.320Z,72.70
2022-08-26T00:29:03.874Z,73.10
2022-08-26T00:31:32.154Z,73.40
2022-08-26T00:33:59.402Z,73.40
2022-08-26T00:36:29.572Z,73.60
2022-08-26T00:38:57.606Z,73.40
2022-08-26T00:41:24.542Z,73.50
2022-08-26T00:43:51.978Z,73.90
2022-08-26T00:46:24.267Z,74.10
2022-08-26T00:48:56.993Z,74.00
2022-08-26T00:51:29.685Z,74.00
2022-08-26T00:54:10.875Z,74.60
2022-08-26T00:57:01.805Z,74.90
2022-08-26T00:59:32.875Z,74.40
2022-08-26T01:02:02.828Z,74.40
2022-08-26T01:04:32.231Z,74.50
2022-08-26T01:06:59.785Z,74.60
2022-08-26T01:09:27.591Z,74.60
2022-08-26T01:11:58.017Z,74.60
2022-08-26T01:14:30.003Z,74.80
2022-08-26T01:16:57.075Z,74.90
2022-08-26T01:19:57.343Z,75.10
2022-08-26T01:22:33.062Z,75.50
2022-08-26T01:25:03.660Z,75.10
2022-08-26T01:27:32.976Z,74.90
2022-08-26T01:30:02.324Z,74.80
2022-08-26T01:32:31.779Z,74.80
2022-08-26T01:34:59.726Z,74.80
2022-08-26T01:37:32.787Z,75.10
2022-08-26T01:40:00.065Z,75.00
2022-08-26T01:42:27.515Z,74.70
2022-08-26T01:45:05.429Z,74.70
2022-08-26T01:47:35.128Z,75.00
2022-08-26T01:50:10.673Z,75.40
2022-08-26T01:52:41.388Z,75.50
2022-08-26T01:55:11.539Z,75.30
2022-08-26T01:57:39.414Z,75.10
2022-08-26T02:00:13.359Z,75.60
2022-08-26T02:02:46.205Z,75.10
2022-08-26T02:05:19.377Z,75.00
2022-08-26T02:07:47.302Z,75.10
2022-08-26T02:10:15.549Z,75.00
2022-08-26T02:12:43.550Z,75.10
2022-08-26T02:15:12.545Z,75.20
2022-08-26T02:17:47.343Z,75.20
2022-08-26T02:20:16.802Z,75.40
2022-08-26T02:22:45.387Z,75.90
2022-08-26T02:25:21.467Z,75.40
2022-08-26T02:27:50.028Z,75.40
2022-08-26T02:30:24.241Z,75.70
2022-08-26T02:32:53.243Z,76.30
2022-08-26T02:35:22.415Z,76.50
2022-08-26T02:37:50.669Z,77.40
2022-08-26T02:40:21.792Z,77.20
2022-08-26T02:42:49.487Z,78.40
2022-08-26T02:45:23.109Z,78.50
2022-08-26T02:47:51.545Z,79.30
2022-08-26T02:50:20.046Z,78.90
2022-08-26T02:52:48.473Z,79.60
2022-08-26T02:55:16.162Z,79.70
2022-08-26T02:57:43.635Z,80.30
2022-08-26T03:00:13.249Z,80.70
2022-08-26T03:02:40.450Z,81.00
2022-08-26T03:05:07.813Z,81.20
2022-08-26T03:07:34.755Z,81.50
2022-08-26T03:10:01.822Z,81.70
2022-08-26T03:12:36.141Z,82.10
2022-08-26T03:15:03.445Z,82.50
2022-08-26T03:17:49.225Z,82.80
2022-08-26T03:20:17.865Z,83.30
2022-08-26T03:22:45.949Z,83.80
2022-08-26T03:25:15.518Z,84.20
2022-08-26T03:27:43.132Z,84.60
2022-08-26T03:30:29.938Z,85.30
2022-08-26T03:32:57.208Z,85.90
2022-08-26T03:35:25.548Z,86.50
2022-08-26T03:37:53.225Z,86.60
2022-08-26T03:40:20.583Z,87.00
2022-08-26T03:42:47.794Z,87.40
2022-08-26T03:45:17.580Z,87.80
2022-08-26T03:47:45.285Z,88.20
2022-08-26T03:50:15.172Z,88.70
2022-08-26T03:52:44.098Z,89.00
2022-08-26T03:55:11.928Z,89.30
2022-08-26T03:57:39.408Z,89.60
2022-08-26T04:00:09.339Z,89.80
2022-08-26T04:02:36.443Z,90.00
2022-08-26T04:05:03.822Z,90.10
2022-08-26T04:07:32.065Z,90.20
2022-08-26T04:10:00.097Z,90.40
2022-08-26T04:12:27.074Z,90.40
2022-08-26T04:14:54.228Z,90.60
2022-08-26T04:17:25.874Z,90.70
2022-08-26T04:19:54.170Z,90.80
2022-08-26T04:22:24.187Z,91.00
2022-08-26T04:24:52.479Z,91.20
2022-08-26T04:27:19.500Z,91.40
2022-08-26T04:29:47.717Z,91.60
2022-08-26T04:32:15.733Z,91.80
2022-08-26T04:34:43.895Z,91.90
2022-08-26T04:37:13.216Z,92.20
2022-08-26T04:39:40.587Z,92.50
2022-08-26T04:42:07.899Z,92.70
2022-08-26T04:44:37.741Z,93.00
2022-08-26T04:47:06.597Z,93.10
2022-08-26T04:49:35.401Z,93.20
2022-08-26T04:52:03.357Z,93.60
2022-08-26T04:54:31.742Z,93.90
2022-08-26T04:56:59.398Z,94.00
2022-08-26T04:59:26.334Z,94.10
2022-08-26T05:01:56.862Z,94.30
2022-08-26T05:04:23.831Z,94.40
2022-08-26T05:06:51.149Z,94.50
2022-08-26T05:09:19.132Z,94.60
2022-08-26T05:11:48.487Z,94.70
2022-08-26T05:14:23.327Z,94.80
2022-08-26T05:16:50.614Z,94.80
2022-08-26T05:19:19.281Z,94.90
2022-08-26T05:21:47.781Z,95.00
2022-08-26T05:24:16.068Z,95.10
2022-08-26T05:26:44.497Z,95.20
2022-08-26T05:29:11.784Z,95.40
2022-08-26T05:31:38.831Z,95.40
2022-08-26T05:34:06.022Z,95.50
2022-08-26T05:36:35.773Z,95.60
2022-08-26T05:39:06.373Z,95.70
2022-08-26T05:41:36.782Z,95.70
2022-08-26T05:44:08.506Z,95.70
2022-08-26T05:46:36.770Z,95.80
2022-08-26T05:49:05.908Z,95.80
2022-08-26T05:51:33.688Z,95.70
2022-08-26T05:54:02.633Z,95.80
2022-08-26T05:56:30.516Z,95.90
2022-08-26T05:58:58.569Z,95.80
2022-08-26T06:01:28.407Z,95.90
2022-08-26T06:04:02.625Z,96.20
2022-08-26T06:06:35.392Z,96.00
2022-08-26T06:09:05.228Z,96.10
2022-08-26T06:11:33.018Z,96.20
2022-08-26T06:14:03.990Z,96.20
2022-08-26T06:16:32.497Z,96.40
2022-08-26T06:19:02.978Z,96.50
2022-08-26T06:21:35.092Z,96.60
2022-08-26T06:24:27.296Z,96.50
2022-08-26T06:27:01.647Z,96.40
2022-08-26T06:29:31.114Z,96.40
2022-08-26T06:31:58.648Z,96.30
2022-08-26T06:34:30.574Z,96.30
2022-08-26T06:37:01.303Z,96.20
2022-08-26T06:39:30.868Z,96.20
2022-08-26T06:41:59.036Z,96.10
2022-08-26T06:44:26.928Z,96.00
2022-08-26T06:46:54.007Z,95.90
2022-08-26T06:49:26.807Z,95.90
2022-08-26T06:51:56.529Z,95.70
2022-08-26T06:54:23.465Z,95.60
2022-08-26T06:56:50.339Z,95.50
2022-08-26T06:59:17.999Z,95.50
2022-08-26T07:01:45.231Z,95.40
2022-08-26T07:04:15.736Z,95.30
2022-08-26T07:06:47.150Z,95.20
2022-08-26T07:09:14.435Z,95.10
2022-08-26T07:11:41.658Z,95.00
2022-08-26T07:14:09.157Z,94.90
2022-08-26T07:16:36.464Z,94.80
2022-08-26T07:19:11.150Z,94.60
2022-08-26T07:21:41.661Z,94.40
2022-08-26T07:24:11.035Z,94.30
2022-08-26T07:26:38.221Z,94.20
2022-08-26T07:29:05.514Z,94.10
2022-08-26T07:31:39.670Z,94.10
2022-08-26T07:34:10.653Z,94.00
2022-08-26T07:36:37.677Z,94.00
2022-08-26T07:39:06.092Z,93.90
2022-08-26T07:41:33.644Z,93.80
2022-08-26T07:44:01.091Z,93.60
2022-08-26T07:46:30.465Z,93.60
2022-08-26T07:48:58.101Z,93.60
2022-08-26T07:51:26.083Z,93.60
2022-08-26T07:53:54.364Z,93.50
2022-08-26T07:56:23.411Z,93.60
2022-08-26T07:58:52.097Z,93.40
2022-08-26T08:01:31.541Z,93.50
2022-08-26T08:04:00.523Z,93.40
2022-08-26T08:06:29.295Z,93.20
2022-08-26T08:08:57.176Z,93.10
2022-08-26T08:11:27.251Z,93.00
2022-08-26T08:13:56.366Z,92.90
2022-08-26T08:16:25.006Z,92.90
2022-08-26T08:18:53.546Z,92.80
2022-08-26T08:21:23.564Z,92.70
2022-08-26T08:23:52.806Z,92.60
2022-08-26T08:26:20.289Z,92.40
2022-08-26T08:28:48.187Z,92.30
2022-08-26T08:31:55.912Z,92.10
2022-08-26T08:34:15.150Z,91.90
2022-08-26T08:36:42.319Z,91.90
2022-08-26T08:39:09.598Z,91.90
2022-08-26T08:41:45.556Z,91.90
2022-08-26T08:47:00.738Z,91.80
2022-08-26T08:49:28.399Z,91.90
2022-08-26T08:52:18.961Z,91.80
2022-08-26T08:54:46.784Z,91.50
2022-08-26T08:57:22.033Z,91.50
2022-08-26T09:00:05.195Z,91.50
2022-08-26T09:02:42.371Z,91.60
2022-08-26T09:05:23.119Z,91.50
2022-08-26T09:07:58.778Z,91.70
2022-08-26T09:10:41.891Z,91.40
2022-08-26T09:13:13.660Z,91.30
2022-08-26T09:15:56.507Z,91.30
2022-08-26T09:18:55.035Z,91.40
2022-08-26T09:21:25.218Z,91.30
2022-08-26T09:23:55.492Z,91.20
2022-08-26T09:26:38.943Z,91.20
2022-08-26T09:29:14.320Z,91.30
2022-08-26T09:31:41.855Z,91.30
2022-08-26T09:34:17.454Z,91.00
2022-08-26T09:36:51.981Z,90.90
2022-08-26T09:39:33.129Z,90.80
2022-08-26T09:42:11.265Z,90.60
2022-08-26T09:45:03.649Z,90.40
2022-08-26T09:47:38.772Z,90.10
2022-08-26T09:50:29.194Z,89.70
2022-08-26T09:53:16.468Z,89.40
2022-08-26T09:55:49.411Z,89.30
2022-08-26T09:58:37.826Z,89.40
2022-08-26T10:01:14.659Z,88.50
2022-08-26T10:03:43.262Z,88.20
2022-08-26T10:06:21.853Z,88.10
2022-08-26T10:09:00.085Z,87.80
2022-08-26T10:11:47.976Z,87.30
2022-08-26T10:14:18.898Z,88.00
2022-08-26T10:16:54.584Z,87.60
2022-08-26T10:19:55.681Z,87.70
2022-08-26T10:22:38.928Z,86.80
2022-08-26T10:25:12.517Z,86.50
2022-08-26T10:28:06.517Z,86.10
2022-08-26T10:31:00.800Z,85.70
2022-08-26T10:33:27.946Z,85.80
2022-08-26T10:36:06.030Z,85.70
2022-08-26T10:38:38.231Z,85.50
2022-08-26T10:41:16.999Z,85.50
2022-08-26T10:43:56.424Z,85.70
2022-08-26T10:46:34.593Z,85.90
2022-08-26T10:49:09.136Z,86.00
2022-08-26T10:51:42.858Z,86.20
2022-08-26T10:54:34.348Z,86.40
2022-08-26T10:57:30.095Z,86.70
2022-08-26T11:00:27.565Z,86.80
2022-08-26T11:03:21.648Z,86.50
2022-08-26T11:06:18.352Z,86.20
2022-08-26T11:08:49.434Z,86.20
2022-08-26T11:11:41.021Z,86.10
2022-08-26T11:14:28.941Z,85.70
2022-08-26T11:16:58.885Z,85.80
2022-08-26T11:19:59.417Z,85.90
2022-08-26T11:22:33.709Z,85.90
2022-08-26T11:25:04.140Z,86.00
2022-08-26T11:27:38.446Z,85.60
2022-08-26T11:30:39.733Z,85.30
2022-08-26T11:33:08.203Z,85.00
2022-08-26T11:35:37.446Z,84.60
2022-08-26T11:38:27.265Z,84.00
2022-08-26T11:41:11.209Z,83.10
2022-08-26T11:43:40.698Z,82.30
2022-08-26T11:46:13.017Z,82.10
2022-08-26T11:48:42.651Z,81.80
2022-08-26T11:51:22.406Z,81.30
2022-08-26T11:53:49.559Z,81.10
2022-08-26T11:56:26.053Z,80.70
2022-08-26T11:58:58.579Z,79.90
2022-08-26T12:01:38.224Z,79.20
2022-08-26T12:04:08.368Z,79.50
2022-08-26T12:06:45.204Z,78.50
2022-08-26T12:09:44.315Z,78.20
2022-08-26T12:12:18.593Z,78.20
2022-08-26T12:14:46.160Z,78.40
2022-08-26T12:17:27.918Z,78.70
2022-08-26T12:19:54.926Z,78.50
2022-08-26T12:22:29.382Z,79.10
2022-08-26T12:25:00.231Z,78.70
2022-08-26T12:27:32.840Z,78.60
2022-08-26T12:30:08.343Z,78.90
2022-08-26T12:32:36.716Z,79.30
2022-08-26T12:37:49.046Z,78.70
2022-08-26T12:40:37.264Z,78.20
2022-08-26T12:43:06.515Z,78.50
2022-08-26T12:45:43.953Z,78.30
2022-08-26T12:48:25.890Z,78.20
2022-08-26T12:50:53.326Z,78.00
2022-08-26T12:53:31.971Z,77.70
2022-08-26T12:56:03.426Z,77.50
2022-08-26T12:58:36.753Z,77.30
2022-08-26T13:01:06.685Z,77.10
2022-08-26T13:03:45.726Z,77.10
2022-08-26T13:06:17.722Z,76.80
2022-08-26T13:08:51.468Z,76.50
2022-08-26T13:11:20.428Z,76.50
2022-08-26T13:13:52.418Z,76.80
2022-08-26T13:16:22.349Z,77.40
2022-08-26T13:18:51.681Z,76.80
2022-08-26T13:21:21.881Z,76.30
2022-08-26T13:23:49.580Z,77.00
2022-08-26T13:26:16.614Z,77.20
2022-08-26T13:28:43.858Z,77.70
2022-08-26T13:31:12.710Z,77.70
2022-08-26T13:33:41.134Z,77.90
2022-08-26T13:36:08.518Z,77.90
2022-08-26T13:38:35.423Z,78.00
2022-08-26T13:41:03.622Z,78.40
2022-08-26T13:43:31.873Z,79.00
2022-08-26T13:45:58.828Z,79.50
2022-08-26T13:48:26.304Z,79.50
2022-08-26T13:50:53.967Z,79.80
2022-08-26T13:53:21.245Z,80.00
2022-08-26T13:55:48.578Z,80.60
2022-08-26T13:58:15.914Z,80.40
2022-08-26T14:00:42.999Z,80.40
2022-08-26T14:03:13.263Z,80.40
2022-08-26T14:05:40.915Z,80.20
2022-08-26T14:08:08.269Z,80.00
2022-08-26T14:10:35.642Z,80.20
2022-08-26T14:13:03.462Z,79.60
2022-08-26T14:15:36.053Z,80.20
2022-08-26T14:18:05.312Z,80.90
2022-08-26T14:20:34.833Z,81.30
2022-08-26T14:23:20.435Z,81.20
2022-08-26T14:25:47.408Z,81.80
2022-08-26T14:28:14.430Z,81.80
2022-08-26T14:30:43.073Z,81.50
2022-08-26T14:33:14.658Z,81.40
2022-08-26T14:35:47.876Z,81.10
2022-08-26T14:38:17.138Z,81.30
2022-08-26T14:40:45.106Z,81.40
2022-08-26T14:43:15.317Z,81.70
2022-08-26T14:45:45.208Z,81.30
2022-08-26T14:48:12.190Z,80.90
2022-08-26T14:50:39.124Z,80.60
2022-08-26T14:53:24.887Z,80.40
2022-08-26T14:55:51.890Z,80.70
2022-08-26T14:58:18.806Z,81.00
2022-08-26T15:00:45.701Z,80.80
2022-08-26T15:05:48.127Z,80.80
2022-08-26T15:08:16.004Z,80.30
2022-08-26T15:10:42.946Z,80.10
2022-08-26T15:13:09.843Z,80.00
2022-08-26T15:15:38.078Z,80.50
2022-08-26T15:18:06.070Z,80.50
2022-08-26T15:23:07.022Z,81.00
2022-08-26T15:25:34.730Z,81.40
2022-08-26T15:28:01.851Z,81.40
2022-08-26T15:30:28.798Z,81.40
2022-08-26T15:32:55.732Z,81.80
2022-08-26T15:35:22.617Z,82.50
2022-08-26T15:40:22.185Z,82.30
2022-08-26T15:42:57.583Z,82.40
2022-08-26T15:45:28.721Z,82.40
2022-08-26T15:48:01.090Z,82.60
2022-08-26T15:50:29.370Z,82.90
2022-08-26T15:52:56.639Z,83.60
2022-08-26T15:55:23.702Z,83.80
2022-08-26T15:57:50.803Z,84.00
2022-08-26T16:00:18.284Z,83.90
2022-08-26T16:02:45.180Z,84.10
2022-08-26T16:05:12.618Z,84.10
2022-08-26T16:07:40.532Z,84.40
2022-08-26T16:10:07.949Z,84.60
2022-08-26T16:12:34.843Z,84.70
2022-08-26T16:15:01.882Z,84.80
2022-08-26T16:17:28.828Z,85.20
2022-08-26T16:19:56.295Z,85.60
2022-08-26T16:22:23.248Z,85.80
2022-08-26T16:24:50.693Z,86.00
2022-08-26T16:27:17.611Z,86.20
2022-08-26T16:29:44.498Z,86.60
2022-08-26T16:32:11.445Z,86.90
2022-08-26T16:34:38.356Z,86.80
2022-08-26T16:37:23.438Z,86.90
2022-08-26T16:39:50.417Z,87.20
2022-08-26T16:42:17.394Z,87.30
2022-08-26T16:44:44.561Z,87.60
2022-08-26T16:47:15.920Z,88.00
2022-08-26T16:49:43.161Z,88.50
2022-08-26T16:52:11.377Z,88.60
2022-08-26T16:54:41.021Z,88.60
2022-08-26T16:57:11.402Z,88.50
2022-08-26T16:59:39.580Z,88.40
2022-08-26T17:02:07.235Z,88.20
2022-08-26T17:04:34.371Z,87.90
2022-08-26T17:07:01.313Z,87.60
2022-08-26T17:09:28.263Z,87.50
2022-08-26T17:11:55.596Z,87.60
2022-08-26T17:14:22.523Z,87.70
2022-08-26T17:16:53.574Z,87.90
2022-08-26T17:19:21.007Z,88.20
2022-08-26T17:21:48.217Z,88.90
2022-08-26T17:24:15.266Z,89.40
2022-08-26T17:26:44.399Z,90.10
2022-08-26T17:29:15.338Z,90.60
2022-08-26T17:31:43.564Z,90.70
2022-08-26T17:34:10.563Z,90.70
2022-08-26T17:36:37.465Z,90.70
2022-08-26T17:39:04.503Z,90.60
2022-08-26T17:41:31.541Z,90.60
2022-08-26T17:43:58.547Z,90.70
2022-08-26T17:46:25.994Z,90.70
2022-08-26T17:48:53.089Z,90.60
2022-08-26T17:51:20.237Z,90.70
2022-08-26T17:53:48.653Z,90.70
2022-08-26T17:56:18.593Z,90.70
2022-08-26T17:58:51.465Z,90.70
2022-08-26T18:01:20.010Z,90.70
2022-08-26T18:03:47.185Z,90.70
2022-08-26T18:06:15.225Z,90.80
2022-08-26T18:08:42.380Z,90.80
2022-08-26T18:11:18.107Z,90.80
2022-08-26T18:13:47.240Z,90.90
2022-08-26T18:16:16.240Z,90.90
2022-08-26T18:18:43.598Z,90.90
2022-08-26T18:21:19.962Z,91.00
2022-08-26T18:23:47.451Z,91.10
2022-08-26T18:26:22.170Z,91.10
2022-08-26T18:28:49.252Z,91.10
2022-08-26T18:31:16.528Z,91.00
2022-08-26T18:33:44.024Z,91.10
2022-08-26T18:36:29.954Z,91.00
2022-08-26T18:38:57.932Z,91.00
2022-08-26T18:41:26.719Z,90.90
2022-08-26T18:43:54.427Z,90.90
2022-08-26T18:46:25.254Z,91.00
2022-08-26T18:48:55.028Z,91.00
2022-08-26T18:51:25.303Z,91.10
2022-08-26T18:53:52.740Z,91.00
2022-08-26T18:56:19.892Z,91.10
2022-08-26T18:58:47.646Z,91.10
2022-08-26T19:01:16.162Z,91.20
2022-08-26T19:03:43.743Z,91.30
2022-08-26T19:06:19.637Z,91.40
2022-08-26T19:08:49.733Z,91.50
2022-08-26T19:11:32.296Z,91.50
2022-08-26T19:14:07.540Z,91.60
2022-08-26T19:16:35.221Z,91.80
2022-08-26T19:19:02.516Z,91.90
2022-08-26T19:21:31.543Z,92.00
2022-08-26T19:24:00.597Z,92.10
2022-08-26T19:26:28.433Z,92.30
2022-08-26T19:28:55.776Z,92.40
2022-08-26T19:31:22.847Z,92.60
2022-08-26T19:33:49.815Z,92.60
2022-08-26T19:36:22.292Z,92.60
2022-08-26T19:38:50.004Z,92.80
2022-08-26T19:41:20.552Z,92.90
2022-08-26T19:43:48.226Z,93.00
2022-08-26T19:46:19.170Z,93.10
2022-08-26T19:48:47.143Z,93.20
2022-08-26T19:51:19.885Z,93.30
2022-08-26T19:53:48.725Z,93.50
2022-08-26T19:56:16.592Z,93.50
2022-08-26T19:58:44.414Z,93.70
2022-08-26T20:01:12.455Z,93.80
2022-08-26T20:03:39.572Z,93.90
2022-08-26T20:06:08.044Z,94.10
2022-08-26T20:08:36.545Z,94.20
2022-08-26T20:11:09.109Z,94.30
2022-08-26T20:13:36.923Z,94.40
2022-08-26T20:16:04.319Z,94.50
2022-08-26T20:18:50.055Z,94.60
2022-08-26T20:21:29.547Z,94.80
2022-08-26T20:24:03.549Z,94.90
2022-08-26T20:26:33.287Z,95.10
2022-08-26T20:29:00.324Z,95.20
2022-08-26T20:31:28.604Z,95.30
2022-08-26T20:33:56.008Z,95.50
2022-08-26T20:36:26.905Z,95.60
2022-08-26T20:38:54.666Z,95.70
2022-08-26T20:41:23.762Z,95.70
2022-08-26T20:43:50.850Z,95.90
2022-08-26T20:46:21.028Z,95.90
2022-08-26T20:48:49.949Z,95.90
2022-08-26T20:51:17.874Z,95.90
2022-08-26T20:53:45.635Z,95.90
2022-08-26T20:56:14.190Z,96.00
2022-08-26T20:58:41.284Z,96.00
2022-08-26T21:01:09.105Z,95.90
2022-08-26T21:03:36.809Z,95.90
2022-08-26T21:06:03.975Z,95.90
2022-08-26T21:08:33.185Z,95.90
2022-08-26T21:11:00.828Z,96.00
2022-08-26T21:13:42.876Z,96.20
2022-08-26T21:16:15.501Z,96.20
2022-08-26T21:18:42.453Z,96.30
2022-08-26T21:21:10.039Z,96.40
2022-08-26T21:23:37.361Z,96.40
2022-08-26T21:26:07.299Z,96.50
2022-08-26T21:28:38.798Z,96.50
2022-08-26T21:31:07.850Z,96.50
2022-08-26T21:33:36.521Z,96.40
2022-08-26T21:36:04.606Z,96.50
2022-08-26T21:38:31.605Z,96.60
2022-08-26T21:41:02.539Z,96.70
2022-08-26T21:43:35.388Z,96.80
2022-08-26T21:46:17.419Z,96.90
2022-08-26T21:48:50.898Z,97.00
2022-08-26T21:51:20.117Z,97.20
2022-08-26T21:53:47.577Z,97.20
2022-08-26T21:56:17.940Z,97.20
2022-08-26T21:58:45.839Z,97.30
2022-08-26T22:01:15.338Z,97.30
2022-08-26T22:03:47.266Z,97.40
2022-08-26T22:06:17.705Z,97.40
2022-08-26T22:08:44.625Z,97.40
2022-08-26T22:11:12.365Z,97.40
2022-08-26T22:13:41.436Z,97.50
2022-08-26T22:16:09.888Z,97.40
2022-08-26T22:18:38.184Z,97.40
2022-08-26T22:21:09.295Z,97.40
2022-08-26T22:23:37.696Z,97.40
2022-08-26T22:26:06.711Z,97.40
2022-08-26T22:28:34.984Z,97.50
2022-08-26T22:31:02.214Z,97.50
2022-08-26T22:33:29.676Z,97.50
2022-08-26T22:35:56.618Z,97.40
2022-08-26T22:38:24.069Z,97.40
2022-08-26T22:40:57.099Z,97.40
2022-08-26T22:43:25.341Z,97.40
2022-08-26T22:45:53.263Z,97.70
2022-08-26T22:48:23.833Z,97.70
2022-08-26T22:50:54.510Z,97.40
2022-08-26T22:53:24.097Z,97.50
2022-08-26T22:55:51.059Z,97.60
2022-08-26T22:58:19.040Z,97.70
2022-08-26T23:00:47.832Z,97.70
2022-08-26T23:03:16.208Z,97.60
2022-08-26T23:05:44.440Z,97.70
2022-08-26T23:08:13.787Z,97.60
2022-08-26T23:10:43.096Z,97.70
2022-08-26T23:13:10.846Z,97.70
2022-08-26T23:15:38.482Z,97.80
2022-08-26T23:18:06.254Z,97.80
2022-08-26T23:20:33.340Z,97.90
2022-08-26T23:23:01.702Z,97.90
2022-08-26T23:25:29.855Z,98.00
2022-08-26T23:27:57.480Z,98.00
2022-08-26T23:30:26.545Z,98.00
2022-08-26T23:32:54.146Z,98.00
2022-08-26T23:35:21.733Z,98.00
2022-08-26T23:37:52.534Z,98.00
2022-08-26T23:40:26.053Z,98.00
2022-08-26T23:42:54.586Z,98.10
2022-08-26T23:45:22.926Z,98.10
2022-08-26T23:47:53.026Z,98.10
2022-08-26T23:50:22.926Z,98.10
2022-08-26T23:53:08.856Z,98.20
2022-08-26T23:55:39.498Z,98.20
2022-08-26T23:58:06.931Z,98.20
